sensor_id;sensor_type;location;lat;lon;timestamp;temperature;humidity
29453;DHT22;16424;50.956;5.320;2023-03-23T00:01:16;13.70;99.90
29453;DHT22;16424;50.956;5.320;2023-03-23T00:03:49;13.60;99.90
29453;DHT22;16424;50.956;5.320;2023-03-23T00:06:17;13.60;99.90
29453;DHT22;16424;50.956;5.320;2023-03-23T00:08:45;13.60;99.90
29453;DHT22;16424;50.956;5.320;2023-03-23T00:11:12;13.60;99.90
29453;DHT22;16424;50.956;5.320;2023-03-23T00:13:41;13.60;99.90
29453;DHT22;16424;50.956;5.320;2023-03-23T00:16:07;13.60;99.90
29453;DHT22;16424;50.956;5.320;2023-03-23T00:18:46;13.60;99.90
29453;DHT22;16424;50.956;5.320;2023-03-23T00:21:12;13.70;99.90
29453;DHT22;16424;50.956;5.320;2023-03-23T00:23:39;13.70;99.90
29453;DHT22;16424;50.956;5.320;2023-03-23T00:26:05;13.70;99.90
29453;DHT22;16424;50.956;5.320;2023-03-23T00:28:30;13.70;99.90
29453;DHT22;16424;50.956;5.320;2023-03-23T00:30:57;13.80;99.90
29453;DHT22;16424;50.956;5.320;2023-03-23T00:33:25;13.80;99.90
29453;DHT22;16424;50.956;5.320;2023-03-23T00:35:52;13.70;99.90
29453;DHT22;16424;50.956;5.320;2023-03-23T00:38:19;13.70;99.90
29453;DHT22;16424;50.956;5.320;2023-03-23T00:40:45;13.70;99.90
29453;DHT22;16424;50.956;5.320;2023-03-23T00:43:15;13.80;99.90
29453;DHT22;16424;50.956;5.320;2023-03-23T00:45:42;13.90;99.90
29453;DHT22;16424;50.956;5.320;2023-03-23T00:48:10;13.80;99.90
29453;DHT22;16424;50.956;5.320;2023-03-23T00:50:38;13.70;99.90
29453;DHT22;16424;50.956;5.320;2023-03-23T00:53:04;13.60;99.90
29453;DHT22;16424;50.956;5.320;2023-03-23T00:55:30;13.60;99.90
29453;DHT22;16424;50.956;5.320;2023-03-23T00:57:56;13.60;99.90
29453;DHT22;16424;50.956;5.320;2023-03-23T01:00:22;13.60;99.90
29453;DHT22;16424;50.956;5.320;2023-03-23T01:02:49;13.70;99.90
29453;DHT22;16424;50.956;5.320;2023-03-23T01:05:17;13.70;99.90
29453;DHT22;16424;50.956;5.320;2023-03-23T01:07:43;13.80;99.90
29453;DHT22;16424;50.956;5.320;2023-03-23T01:10:11;13.70;99.90
29453;DHT22;16424;50.956;5.320;2023-03-23T01:12:43;13.60;99.90
29453;DHT22;16424;50.956;5.320;2023-03-23T01:15:12;13.60;99.90
29453;DHT22;16424;50.956;5.320;2023-03-23T01:17:38;13.60;99.90
29453;DHT22;16424;50.956;5.320;2023-03-23T01:20:04;13.60;99.90
29453;DHT22;16424;50.956;5.320;2023-03-23T01:22:32;13.70;99.90
29453;DHT22;16424;50.956;5.320;2023-03-23T01:24:58;13.60;99.90
29453;DHT22;16424;50.956;5.320;2023-03-23T01:27:23;13.50;99.90
29453;DHT22;16424;50.956;5.320;2023-03-23T01:29:49;13.60;99.90
29453;DHT22;16424;50.956;5.320;2023-03-23T01:32:15;13.70;99.90
29453;DHT22;16424;50.956;5.320;2023-03-23T01:34:41;13.70;99.90
29453;DHT22;16424;50.956;5.320;2023-03-23T01:37:07;13.60;99.90
29453;DHT22;16424;50.956;5.320;2023-03-23T01:39:32;13.60;99.90
29453;DHT22;16424;50.956;5.320;2023-03-23T01:41:58;13.70;99.90
29453;DHT22;16424;50.956;5.320;2023-03-23T01:46:49;13.60;99.90
29453;DHT22;16424;50.956;5.320;2023-03-23T01:49:17;13.60;99.90
29453;DHT22;16424;50.956;5.320;2023-03-23T01:51:51;13.60;99.90
29453;DHT22;16424;50.956;5.320;2023-03-23T01:54:18;13.60;99.90
29453;DHT22;16424;50.956;5.320;2023-03-23T01:56:56;13.60;99.90
29453;DHT22;16424;50.956;5.320;2023-03-23T01:59:26;13.70;99.90
29453;DHT22;16424;50.956;5.320;2023-03-23T02:01:54;13.60;99.90
29453;DHT22;16424;50.956;5.320;2023-03-23T02:04:23;13.50;99.90
29453;DHT22;16424;50.956;5.320;2023-03-23T02:06:51;13.40;99.90
29453;DHT22;16424;50.956;5.320;2023-03-23T02:09:18;13.40;99.90
29453;DHT22;16424;50.956;5.320;2023-03-23T02:11:45;13.40;99.90
29453;DHT22;16424;50.956;5.320;2023-03-23T02:14:12;13.40;99.90
29453;DHT22;16424;50.956;5.320;2023-03-23T02:17:04;13.40;99.90
29453;DHT22;16424;50.956;5.320;2023-03-23T02:25:18;13.20;99.90
29453;DHT22;16424;50.956;5.320;2023-03-23T02:31:05;13.20;99.90
29453;DHT22;16424;50.956;5.320;2023-03-23T02:36:30;13.20;99.90
29453;DHT22;16424;50.956;5.320;2023-03-23T02:42:09;13.40;99.90
29453;DHT22;16424;50.956;5.320;2023-03-23T02:44:39;13.50;99.90
29453;DHT22;16424;50.956;5.320;2023-03-23T02:47:09;13.50;99.90
29453;DHT22;16424;50.956;5.320;2023-03-23T02:49:38;13.50;99.90
29453;DHT22;16424;50.956;5.320;2023-03-23T02:52:09;13.50;99.90
29453;DHT22;16424;50.956;5.320;2023-03-23T02:54:38;13.50;99.90
29453;DHT22;16424;50.956;5.320;2023-03-23T02:57:04;13.60;99.90
29453;DHT22;16424;50.956;5.320;2023-03-23T02:59:30;13.60;99.90
29453;DHT22;16424;50.956;5.320;2023-03-23T03:01:59;13.60;99.90
29453;DHT22;16424;50.956;5.320;2023-03-23T03:04:26;13.70;99.90
29453;DHT22;16424;50.956;5.320;2023-03-23T03:07:18;13.70;99.90
29453;DHT22;16424;50.956;5.320;2023-03-23T03:17:41;13.70;99.90
29453;DHT22;16424;50.956;5.320;2023-03-23T03:20:12;13.80;99.90
29453;DHT22;16424;50.956;5.320;2023-03-23T03:22:40;13.70;99.90
29453;DHT22;16424;50.956;5.320;2023-03-23T03:25:10;13.80;99.90
29453;DHT22;16424;50.956;5.320;2023-03-23T03:27:38;13.70;99.90
29453;DHT22;16424;50.956;5.320;2023-03-23T03:30:09;13.70;99.90
29453;DHT22;16424;50.956;5.320;2023-03-23T03:32:43;13.80;99.90
29453;DHT22;16424;50.956;5.320;2023-03-23T03:35:12;13.70;99.90
29453;DHT22;16424;50.956;5.320;2023-03-23T03:37:38;13.80;99.90
29453;DHT22;16424;50.956;5.320;2023-03-23T03:40:14;13.80;99.90
29453;DHT22;16424;50.956;5.320;2023-03-23T03:42:42;13.70;99.90
29453;DHT22;16424;50.956;5.320;2023-03-23T03:45:10;13.60;99.90
29453;DHT22;16424;50.956;5.320;2023-03-23T03:47:36;13.70;99.90
29453;DHT22;16424;50.956;5.320;2023-03-23T03:50:01;13.70;99.90
29453;DHT22;16424;50.956;5.320;2023-03-23T03:52:27;13.70;99.90
29453;DHT22;16424;50.956;5.320;2023-03-23T03:54:54;13.60;99.90
29453;DHT22;16424;50.956;5.320;2023-03-23T03:57:20;13.60;99.90
29453;DHT22;16424;50.956;5.320;2023-03-23T03:59:46;13.80;99.90
29453;DHT22;16424;50.956;5.320;2023-03-23T04:02:12;13.80;99.90
29453;DHT22;16424;50.956;5.320;2023-03-23T04:04:47;13.70;99.90
29453;DHT22;16424;50.956;5.320;2023-03-23T04:07:14;13.70;99.90
29453;DHT22;16424;50.956;5.320;2023-03-23T04:09:42;13.80;99.90
29453;DHT22;16424;50.956;5.320;2023-03-23T04:12:09;13.70;99.90
29453;DHT22;16424;50.956;5.320;2023-03-23T04:14:34;13.70;99.90
29453;DHT22;16424;50.956;5.320;2023-03-23T04:17:00;13.70;99.90
29453;DHT22;16424;50.956;5.320;2023-03-23T04:19:26;13.70;99.90
29453;DHT22;16424;50.956;5.320;2023-03-23T04:21:54;13.70;99.90
29453;DHT22;16424;50.956;5.320;2023-03-23T04:24:20;13.80;99.90
29453;DHT22;16424;50.956;5.320;2023-03-23T04:26:48;13.70;99.90
29453;DHT22;16424;50.956;5.320;2023-03-23T04:29:13;13.70;99.90
29453;DHT22;16424;50.956;5.320;2023-03-23T04:31:41;13.70;99.90
29453;DHT22;16424;50.956;5.320;2023-03-23T04:34:11;13.60;99.90
29453;DHT22;16424;50.956;5.320;2023-03-23T04:36:39;13.60;99.90
29453;DHT22;16424;50.956;5.320;2023-03-23T04:39:06;13.70;99.90
29453;DHT22;16424;50.956;5.320;2023-03-23T04:41:37;13.60;99.90
29453;DHT22;16424;50.956;5.320;2023-03-23T04:44:04;13.60;99.90
29453;DHT22;16424;50.956;5.320;2023-03-23T04:46:31;13.60;99.90
29453;DHT22;16424;50.956;5.320;2023-03-23T04:48:59;13.60;99.90
29453;DHT22;16424;50.956;5.320;2023-03-23T04:51:26;13.60;99.90
29453;DHT22;16424;50.956;5.320;2023-03-23T04:53:52;13.60;99.90
29453;DHT22;16424;50.956;5.320;2023-03-23T04:56:18;13.50;99.90
29453;DHT22;16424;50.956;5.320;2023-03-23T04:58:44;13.50;99.90
29453;DHT22;16424;50.956;5.320;2023-03-23T05:01:11;13.50;99.90
29453;DHT22;16424;50.956;5.320;2023-03-23T05:03:41;13.50;99.90
29453;DHT22;16424;50.956;5.320;2023-03-23T05:06:06;13.60;99.90
29453;DHT22;16424;50.956;5.320;2023-03-23T05:08:32;13.60;99.90
29453;DHT22;16424;50.956;5.320;2023-03-23T05:11:00;13.50;99.90
29453;DHT22;16424;50.956;5.320;2023-03-23T05:13:27;13.40;99.90
29453;DHT22;16424;50.956;5.320;2023-03-23T05:15:54;13.50;99.90
29453;DHT22;16424;50.956;5.320;2023-03-23T05:18:20;13.40;99.90
29453;DHT22;16424;50.956;5.320;2023-03-23T05:20:46;13.40;99.90
29453;DHT22;16424;50.956;5.320;2023-03-23T05:23:12;13.40;99.90
29453;DHT22;16424;50.956;5.320;2023-03-23T05:25:38;13.50;99.90
29453;DHT22;16424;50.956;5.320;2023-03-23T05:28:12;13.60;99.90
29453;DHT22;16424;50.956;5.320;2023-03-23T05:30:39;13.50;99.90
29453;DHT22;16424;50.956;5.320;2023-03-23T05:33:05;13.50;99.90
29453;DHT22;16424;50.956;5.320;2023-03-23T05:35:31;13.50;99.90
29453;DHT22;16424;50.956;5.320;2023-03-23T05:37:57;13.40;99.90
29453;DHT22;16424;50.956;5.320;2023-03-23T05:40:23;13.40;99.90
29453;DHT22;16424;50.956;5.320;2023-03-23T05:42:51;13.40;99.90
29453;DHT22;16424;50.956;5.320;2023-03-23T05:45:17;13.40;99.90
29453;DHT22;16424;50.956;5.320;2023-03-23T05:47:43;13.30;99.90
29453;DHT22;16424;50.956;5.320;2023-03-23T05:50:10;13.40;99.90
29453;DHT22;16424;50.956;5.320;2023-03-23T05:52:37;13.40;99.90
29453;DHT22;16424;50.956;5.320;2023-03-23T05:55:03;13.40;99.90
29453;DHT22;16424;50.956;5.320;2023-03-23T05:57:29;13.50;99.90
29453;DHT22;16424;50.956;5.320;2023-03-23T05:59:55;13.40;99.90
29453;DHT22;16424;50.956;5.320;2023-03-23T06:02:23;13.30;99.90
29453;DHT22;16424;50.956;5.320;2023-03-23T06:04:50;13.40;99.90
29453;DHT22;16424;50.956;5.320;2023-03-23T06:07:16;13.40;99.90
29453;DHT22;16424;50.956;5.320;2023-03-23T06:09:42;13.30;99.90
29453;DHT22;16424;50.956;5.320;2023-03-23T06:12:08;13.20;99.90
29453;DHT22;16424;50.956;5.320;2023-03-23T06:14:35;13.20;99.90
29453;DHT22;16424;50.956;5.320;2023-03-23T06:17:02;13.30;99.90
29453;DHT22;16424;50.956;5.320;2023-03-23T06:19:28;13.20;99.90
29453;DHT22;16424;50.956;5.320;2023-03-23T06:21:56;13.30;99.90
29453;DHT22;16424;50.956;5.320;2023-03-23T06:24:22;13.40;99.90
29453;DHT22;16424;50.956;5.320;2023-03-23T06:26:48;13.40;99.90
29453;DHT22;16424;50.956;5.320;2023-03-23T06:29:15;13.40;99.90
29453;DHT22;16424;50.956;5.320;2023-03-23T06:31:48;13.30;99.90
29453;DHT22;16424;50.956;5.320;2023-03-23T06:34:16;13.40;99.90
29453;DHT22;16424;50.956;5.320;2023-03-23T06:36:42;13.40;99.90
29453;DHT22;16424;50.956;5.320;2023-03-23T06:39:10;13.40;99.90
29453;DHT22;16424;50.956;5.320;2023-03-23T06:41:35;13.40;99.90
29453;DHT22;16424;50.956;5.320;2023-03-23T06:44:01;13.40;99.90
29453;DHT22;16424;50.956;5.320;2023-03-23T06:46:27;13.50;99.90
29453;DHT22;16424;50.956;5.320;2023-03-23T06:48:54;13.50;99.90
29453;DHT22;16424;50.956;5.320;2023-03-23T06:51:20;13.50;99.90
29453;DHT22;16424;50.956;5.320;2023-03-23T06:53:46;13.50;99.90
29453;DHT22;16424;50.956;5.320;2023-03-23T06:56:12;13.60;99.90
29453;DHT22;16424;50.956;5.320;2023-03-23T06:58:38;13.60;99.90
29453;DHT22;16424;50.956;5.320;2023-03-23T07:01:05;13.60;99.90
29453;DHT22;16424;50.956;5.320;2023-03-23T07:03:31;13.60;99.90
29453;DHT22;16424;50.956;5.320;2023-03-23T07:05:57;13.60;99.90
29453;DHT22;16424;50.956;5.320;2023-03-23T07:08:24;13.60;99.90
29453;DHT22;16424;50.956;5.320;2023-03-23T07:10:54;13.50;99.90
29453;DHT22;16424;50.956;5.320;2023-03-23T07:13:20;13.50;99.90
29453;DHT22;16424;50.956;5.320;2023-03-23T07:15:47;13.50;99.90
29453;DHT22;16424;50.956;5.320;2023-03-23T07:18:14;13.50;99.90
29453;DHT22;16424;50.956;5.320;2023-03-23T07:20:40;13.60;99.90
29453;DHT22;16424;50.956;5.320;2023-03-23T07:23:06;13.60;99.90
29453;DHT22;16424;50.956;5.320;2023-03-23T07:25:33;13.80;99.90
29453;DHT22;16424;50.956;5.320;2023-03-23T07:28:00;13.90;99.90
29453;DHT22;16424;50.956;5.320;2023-03-23T07:30:27;13.90;99.90
29453;DHT22;16424;50.956;5.320;2023-03-23T07:32:55;13.80;99.90
29453;DHT22;16424;50.956;5.320;2023-03-23T07:35:21;14.00;99.90
29453;DHT22;16424;50.956;5.320;2023-03-23T07:37:47;14.00;99.90
29453;DHT22;16424;50.956;5.320;2023-03-23T07:40:15;14.10;99.90
29453;DHT22;16424;50.956;5.320;2023-03-23T07:42:45;14.30;99.90
29453;DHT22;16424;50.956;5.320;2023-03-23T07:45:12;14.20;99.90
29453;DHT22;16424;50.956;5.320;2023-03-23T07:47:39;14.10;99.90
29453;DHT22;16424;50.956;5.320;2023-03-23T07:50:06;14.20;99.90
29453;DHT22;16424;50.956;5.320;2023-03-23T07:52:33;14.20;99.90
29453;DHT22;16424;50.956;5.320;2023-03-23T07:54:59;14.30;99.90
29453;DHT22;16424;50.956;5.320;2023-03-23T07:57:27;14.20;99.90
29453;DHT22;16424;50.956;5.320;2023-03-23T07:59:53;14.00;99.90
29453;DHT22;16424;50.956;5.320;2023-03-23T08:02:18;14.00;99.90
29453;DHT22;16424;50.956;5.320;2023-03-23T08:04:45;14.00;99.90
29453;DHT22;16424;50.956;5.320;2023-03-23T08:07:11;14.20;99.90
29453;DHT22;16424;50.956;5.320;2023-03-23T08:09:38;14.20;99.90
29453;DHT22;16424;50.956;5.320;2023-03-23T08:12:04;14.20;99.90
29453;DHT22;16424;50.956;5.320;2023-03-23T08:14:30;14.10;99.90
29453;DHT22;16424;50.956;5.320;2023-03-23T08:16:56;14.00;99.90
29453;DHT22;16424;50.956;5.320;2023-03-23T08:19:22;14.10;99.90
29453;DHT22;16424;50.956;5.320;2023-03-23T08:21:49;14.10;99.90
29453;DHT22;16424;50.956;5.320;2023-03-23T08:24:15;14.00;99.90
29453;DHT22;16424;50.956;5.320;2023-03-23T08:26:41;13.80;99.90
29453;DHT22;16424;50.956;5.320;2023-03-23T08:29:07;13.50;99.90
29453;DHT22;16424;50.956;5.320;2023-03-23T08:31:34;12.90;99.90
29453;DHT22;16424;50.956;5.320;2023-03-23T08:34:01;12.50;99.90
29453;DHT22;16424;50.956;5.320;2023-03-23T08:36:27;12.00;99.90
29453;DHT22;16424;50.956;5.320;2023-03-23T08:38:54;11.90;99.90
29453;DHT22;16424;50.956;5.320;2023-03-23T08:41:19;11.90;99.90
29453;DHT22;16424;50.956;5.320;2023-03-23T08:43:45;11.60;99.90
29453;DHT22;16424;50.956;5.320;2023-03-23T08:46:12;11.50;99.90
29453;DHT22;16424;50.956;5.320;2023-03-23T08:48:38;11.50;99.90
29453;DHT22;16424;50.956;5.320;2023-03-23T08:51:05;11.60;99.90
29453;DHT22;16424;50.956;5.320;2023-03-23T08:53:32;11.50;99.90
29453;DHT22;16424;50.956;5.320;2023-03-23T08:56:09;11.60;99.90
29453;DHT22;16424;50.956;5.320;2023-03-23T08:58:36;11.40;99.90
29453;DHT22;16424;50.956;5.320;2023-03-23T09:01:03;11.40;99.90
29453;DHT22;16424;50.956;5.320;2023-03-23T09:03:32;11.20;99.90
29453;DHT22;16424;50.956;5.320;2023-03-23T09:05:59;11.10;99.90
29453;DHT22;16424;50.956;5.320;2023-03-23T09:08:26;11.20;99.90
29453;DHT22;16424;50.956;5.320;2023-03-23T09:10:55;11.20;99.90
29453;DHT22;16424;50.956;5.320;2023-03-23T09:13:21;11.30;99.90
29453;DHT22;16424;50.956;5.320;2023-03-23T09:15:46;11.20;99.90
29453;DHT22;16424;50.956;5.320;2023-03-23T09:18:13;11.10;99.90
29453;DHT22;16424;50.956;5.320;2023-03-23T09:20:39;11.10;99.90
29453;DHT22;16424;50.956;5.320;2023-03-23T09:23:05;11.30;99.90
29453;DHT22;16424;50.956;5.320;2023-03-23T09:25:31;11.40;99.90
29453;DHT22;16424;50.956;5.320;2023-03-23T09:27:58;11.50;99.90
29453;DHT22;16424;50.956;5.320;2023-03-23T09:30:27;11.70;99.90
29453;DHT22;16424;50.956;5.320;2023-03-23T09:32:53;11.90;99.90
29453;DHT22;16424;50.956;5.320;2023-03-23T09:35:20;12.00;99.90
29453;DHT22;16424;50.956;5.320;2023-03-23T09:37:47;12.10;99.90
29453;DHT22;16424;50.956;5.320;2023-03-23T09:40:20;12.10;99.90
29453;DHT22;16424;50.956;5.320;2023-03-23T09:42:53;12.30;99.90
29453;DHT22;16424;50.956;5.320;2023-03-23T09:48:38;12.50;99.90
29453;DHT22;16424;50.956;5.320;2023-03-23T09:53:58;12.50;99.90
29453;DHT22;16424;50.956;5.320;2023-03-23T09:56:27;12.60;99.90
29453;DHT22;16424;50.956;5.320;2023-03-23T09:59:00;12.70;99.90
29453;DHT22;16424;50.956;5.320;2023-03-23T10:01:37;12.70;99.90
29453;DHT22;16424;50.956;5.320;2023-03-23T10:04:14;12.80;99.90
29453;DHT22;16424;50.956;5.320;2023-03-23T10:06:42;12.90;99.90
29453;DHT22;16424;50.956;5.320;2023-03-23T10:09:15;13.00;99.90
29453;DHT22;16424;50.956;5.320;2023-03-23T10:17:52;12.80;99.90
29453;DHT22;16424;50.956;5.320;2023-03-23T10:25:41;12.20;99.90
29453;DHT22;16424;50.956;5.320;2023-03-23T10:28:13;12.30;99.90
29453;DHT22;16424;50.956;5.320;2023-03-23T10:30:43;12.50;99.90
29453;DHT22;16424;50.956;5.320;2023-03-23T10:33:30;12.70;99.90
29453;DHT22;16424;50.956;5.320;2023-03-23T10:36:07;12.90;99.90
29453;DHT22;16424;50.956;5.320;2023-03-23T10:38:54;13.10;99.90
29453;DHT22;16424;50.956;5.320;2023-03-23T10:41:22;13.30;99.90
29453;DHT22;16424;50.956;5.320;2023-03-23T10:43:48;13.50;99.90
29453;DHT22;16424;50.956;5.320;2023-03-23T10:49:11;13.90;99.90
29453;DHT22;16424;50.956;5.320;2023-03-23T10:51:43;14.00;99.90
29453;DHT22;16424;50.956;5.320;2023-03-23T10:54:10;14.00;99.90
29453;DHT22;16424;50.956;5.320;2023-03-23T10:56:41;14.20;99.90
29453;DHT22;16424;50.956;5.320;2023-03-23T10:59:15;14.00;99.90
29453;DHT22;16424;50.956;5.320;2023-03-23T11:01:48;14.00;99.90
29453;DHT22;16424;50.956;5.320;2023-03-23T11:04:17;14.10;99.90
29453;DHT22;16424;50.956;5.320;2023-03-23T11:06:46;13.90;99.90
29453;DHT22;16424;50.956;5.320;2023-03-23T11:09:16;13.80;99.90
29453;DHT22;16424;50.956;5.320;2023-03-23T11:11:51;13.50;99.90
29453;DHT22;16424;50.956;5.320;2023-03-23T11:14:27;13.60;99.90
29453;DHT22;16424;50.956;5.320;2023-03-23T11:16:58;13.40;99.90
29453;DHT22;16424;50.956;5.320;2023-03-23T11:19:34;13.20;99.90
29453;DHT22;16424;50.956;5.320;2023-03-23T11:24:33;13.50;99.90
29453;DHT22;16424;50.956;5.320;2023-03-23T11:26:59;13.60;99.90
29453;DHT22;16424;50.956;5.320;2023-03-23T11:29:29;13.80;99.90
29453;DHT22;16424;50.956;5.320;2023-03-23T11:34:41;13.70;99.90
29453;DHT22;16424;50.956;5.320;2023-03-23T11:37:12;13.60;99.90
29453;DHT22;16424;50.956;5.320;2023-03-23T11:42:23;13.90;99.90
29453;DHT22;16424;50.956;5.320;2023-03-23T11:44:53;14.50;99.90
29453;DHT22;16424;50.956;5.320;2023-03-23T11:47:42;14.60;99.90
29453;DHT22;16424;50.956;5.320;2023-03-23T11:50:20;14.70;99.90
29453;DHT22;16424;50.956;5.320;2023-03-23T11:56:01;14.70;99.90
29453;DHT22;16424;50.956;5.320;2023-03-23T11:58:29;14.70;99.90
29453;DHT22;16424;50.956;5.320;2023-03-23T12:06:32;14.90;99.90
29453;DHT22;16424;50.956;5.320;2023-03-23T12:09:13;15.00;99.90
29453;DHT22;16424;50.956;5.320;2023-03-23T12:23:36;15.90;99.90
29453;DHT22;16424;50.956;5.320;2023-03-23T12:26:10;15.90;99.90
29453;DHT22;16424;50.956;5.320;2023-03-23T12:34:46;16.10;99.90
29453;DHT22;16424;50.956;5.320;2023-03-23T12:42:41;16.20;99.90
29453;DHT22;16424;50.956;5.320;2023-03-23T12:48:32;15.90;99.90
29453;DHT22;16424;50.956;5.320;2023-03-23T12:51:13;15.50;99.90
29453;DHT22;16424;50.956;5.320;2023-03-23T12:56:26;15.30;99.90
29453;DHT22;16424;50.956;5.320;2023-03-23T12:59:17;15.10;99.90
29453;DHT22;16424;50.956;5.320;2023-03-23T13:01:48;15.30;99.90
29453;DHT22;16424;50.956;5.320;2023-03-23T13:04:20;15.10;99.90
29453;DHT22;16424;50.956;5.320;2023-03-23T13:06:48;14.90;99.90
29453;DHT22;16424;50.956;5.320;2023-03-23T13:09:27;14.90;99.90
29453;DHT22;16424;50.956;5.320;2023-03-23T13:11:58;14.80;99.90
29453;DHT22;16424;50.956;5.320;2023-03-23T13:23:05;15.70;99.90
29453;DHT22;16424;50.956;5.320;2023-03-23T13:28:21;15.70;99.90
29453;DHT22;16424;50.956;5.320;2023-03-23T13:31:13;15.90;99.90
29453;DHT22;16424;50.956;5.320;2023-03-23T13:33:46;15.70;99.90
29453;DHT22;16424;50.956;5.320;2023-03-23T13:36:28;15.40;99.90
29453;DHT22;16424;50.956;5.320;2023-03-23T13:38:54;15.20;99.90
29453;DHT22;16424;50.956;5.320;2023-03-23T13:41:22;15.00;99.90
29453;DHT22;16424;50.956;5.320;2023-03-23T13:43:48;14.90;99.90
29453;DHT22;16424;50.956;5.320;2023-03-23T13:46:29;14.90;99.90
29453;DHT22;16424;50.956;5.320;2023-03-23T13:49:18;14.90;99.90
29453;DHT22;16424;50.956;5.320;2023-03-23T13:56:47;14.50;99.90
29453;DHT22;16424;50.956;5.320;2023-03-23T13:59:35;14.50;99.90
29453;DHT22;16424;50.956;5.320;2023-03-23T14:07:53;15.70;99.90
29453;DHT22;16424;50.956;5.320;2023-03-23T14:10:21;16.00;99.90
29453;DHT22;16424;50.956;5.320;2023-03-23T14:12:50;15.80;99.90
29453;DHT22;16424;50.956;5.320;2023-03-23T14:15:18;15.80;99.90
29453;DHT22;16424;50.956;5.320;2023-03-23T14:17:45;15.80;99.90
29453;DHT22;16424;50.956;5.320;2023-03-23T14:20:30;15.90;99.90
29453;DHT22;16424;50.956;5.320;2023-03-23T14:22:57;16.10;99.90
29453;DHT22;16424;50.956;5.320;2023-03-23T14:25:28;16.10;99.90
29453;DHT22;16424;50.956;5.320;2023-03-23T14:27:54;16.20;99.90
29453;DHT22;16424;50.956;5.320;2023-03-23T14:30:23;16.00;99.90
29453;DHT22;16424;50.956;5.320;2023-03-23T14:32:51;16.00;99.90
29453;DHT22;16424;50.956;5.320;2023-03-23T14:37:49;16.20;99.90
29453;DHT22;16424;50.956;5.320;2023-03-23T14:40:17;16.20;99.90
29453;DHT22;16424;50.956;5.320;2023-03-23T14:42:43;16.30;99.90
29453;DHT22;16424;50.956;5.320;2023-03-23T14:45:15;16.20;99.90
29453;DHT22;16424;50.956;5.320;2023-03-23T14:47:52;16.30;99.90
29453;DHT22;16424;50.956;5.320;2023-03-23T14:50:27;16.40;99.90
29453;DHT22;16424;50.956;5.320;2023-03-23T14:55:42;16.20;99.90
29453;DHT22;16424;50.956;5.320;2023-03-23T14:58:14;16.00;99.90
29453;DHT22;16424;50.956;5.320;2023-03-23T15:00:43;15.90;99.90
29453;DHT22;16424;50.956;5.320;2023-03-23T15:03:15;15.90;99.90
29453;DHT22;16424;50.956;5.320;2023-03-23T15:05:46;15.90;99.90
29453;DHT22;16424;50.956;5.320;2023-03-23T15:08:25;16.00;99.90
29453;DHT22;16424;50.956;5.320;2023-03-23T15:13:52;16.10;99.90
29453;DHT22;16424;50.956;5.320;2023-03-23T15:16:33;16.30;99.90
29453;DHT22;16424;50.956;5.320;2023-03-23T15:19:00;16.20;99.90
29453;DHT22;16424;50.956;5.320;2023-03-23T15:21:34;16.00;99.90
29453;DHT22;16424;50.956;5.320;2023-03-23T15:24:01;16.20;99.90
29453;DHT22;16424;50.956;5.320;2023-03-23T15:26:42;15.90;99.90
29453;DHT22;16424;50.956;5.320;2023-03-23T15:31:38;15.30;99.90
29453;DHT22;16424;50.956;5.320;2023-03-23T15:34:04;15.20;99.90
29453;DHT22;16424;50.956;5.320;2023-03-23T15:36:34;15.30;99.90
29453;DHT22;16424;50.956;5.320;2023-03-23T15:39:01;15.30;99.90
29453;DHT22;16424;50.956;5.320;2023-03-23T15:41:30;15.40;99.90
29453;DHT22;16424;50.956;5.320;2023-03-23T15:44:08;15.50;99.90
29453;DHT22;16424;50.956;5.320;2023-03-23T15:46:34;15.60;99.90
29453;DHT22;16424;50.956;5.320;2023-03-23T15:51:28;15.60;99.90
29453;DHT22;16424;50.956;5.320;2023-03-23T15:53:55;15.60;99.90
29453;DHT22;16424;50.956;5.320;2023-03-23T15:56:22;15.80;99.90
29453;DHT22;16424;50.956;5.320;2023-03-23T15:58:48;15.80;99.90
29453;DHT22;16424;50.956;5.320;2023-03-23T16:01:26;15.90;99.90
29453;DHT22;16424;50.956;5.320;2023-03-23T16:03:55;16.00;99.90
29453;DHT22;16424;50.956;5.320;2023-03-23T16:06:23;16.20;99.90
29453;DHT22;16424;50.956;5.320;2023-03-23T16:08:49;16.30;99.90
29453;DHT22;16424;50.956;5.320;2023-03-23T16:11:17;16.30;99.90
29453;DHT22;16424;50.956;5.320;2023-03-23T16:13:44;16.20;99.90
29453;DHT22;16424;50.956;5.320;2023-03-23T16:16:16;16.20;99.90
29453;DHT22;16424;50.956;5.320;2023-03-23T16:18:42;16.30;99.90
29453;DHT22;16424;50.956;5.320;2023-03-23T16:21:08;16.20;99.90
29453;DHT22;16424;50.956;5.320;2023-03-23T16:23:34;16.30;99.90
29453;DHT22;16424;50.956;5.320;2023-03-23T16:25:59;16.20;99.90
29453;DHT22;16424;50.956;5.320;2023-03-23T16:28:25;16.30;99.90
29453;DHT22;16424;50.956;5.320;2023-03-23T16:30:51;16.30;99.90
29453;DHT22;16424;50.956;5.320;2023-03-23T16:33:17;16.30;99.90
29453;DHT22;16424;50.956;5.320;2023-03-23T16:35:43;16.20;99.90
29453;DHT22;16424;50.956;5.320;2023-03-23T16:38:13;16.10;99.90
29453;DHT22;16424;50.956;5.320;2023-03-23T16:40:41;16.20;99.90
29453;DHT22;16424;50.956;5.320;2023-03-23T16:43:08;16.10;99.90
29453;DHT22;16424;50.956;5.320;2023-03-23T16:45:34;16.10;99.90
29453;DHT22;16424;50.956;5.320;2023-03-23T16:48:00;16.10;99.90
29453;DHT22;16424;50.956;5.320;2023-03-23T16:50:28;16.10;99.90
29453;DHT22;16424;50.956;5.320;2023-03-23T16:52:54;16.00;99.90
29453;DHT22;16424;50.956;5.320;2023-03-23T16:55:20;15.90;99.90
29453;DHT22;16424;50.956;5.320;2023-03-23T16:57:47;15.80;99.90
29453;DHT22;16424;50.956;5.320;2023-03-23T17:00:15;15.80;99.90
29453;DHT22;16424;50.956;5.320;2023-03-23T17:02:44;15.80;99.90
29453;DHT22;16424;50.956;5.320;2023-03-23T17:05:11;15.90;99.90
29453;DHT22;16424;50.956;5.320;2023-03-23T17:07:41;15.90;99.90
29453;DHT22;16424;50.956;5.320;2023-03-23T17:10:08;15.80;99.90
29453;DHT22;16424;50.956;5.320;2023-03-23T17:12:35;15.60;99.90
29453;DHT22;16424;50.956;5.320;2023-03-23T17:15:01;15.60;99.90
29453;DHT22;16424;50.956;5.320;2023-03-23T17:17:27;15.50;99.90
29453;DHT22;16424;50.956;5.320;2023-03-23T17:19:53;15.50;99.90
29453;DHT22;16424;50.956;5.320;2023-03-23T17:22:18;15.50;99.90
29453;DHT22;16424;50.956;5.320;2023-03-23T17:24:44;15.60;99.90
29453;DHT22;16424;50.956;5.320;2023-03-23T17:27:16;15.70;99.90
29453;DHT22;16424;50.956;5.320;2023-03-23T17:29:42;15.80;99.90
29453;DHT22;16424;50.956;5.320;2023-03-23T17:32:08;15.90;99.90
29453;DHT22;16424;50.956;5.320;2023-03-23T17:34:34;16.00;99.90
29453;DHT22;16424;50.956;5.320;2023-03-23T17:37:00;15.80;99.90
29453;DHT22;16424;50.956;5.320;2023-03-23T17:39:25;15.80;99.90
29453;DHT22;16424;50.956;5.320;2023-03-23T17:41:52;15.80;99.90
29453;DHT22;16424;50.956;5.320;2023-03-23T17:44:18;15.80;99.90
29453;DHT22;16424;50.956;5.320;2023-03-23T17:46:44;15.40;99.90